Wautoma, Wisconsin
Current Conditions -  °F | °C
As of 2:56 PM on Wednesday 26 Nov 2014 (Local Time) from KY50 Reporting Station
Few Clouds Few Clouds  
Wind Chill: 24°   Ceiling: Unl
Heat Index: 24°   Visibility: 10mi
Dew Point: 18°   Wind: 0mph
Humidity: 78%   Direction: NA
Pressure: 30.16"   Gusts: NA
Location:  44.07°N, 89.29°W
Report Text: KY50 262056Z AUTO 00000KT 10SM FEW014 M04/M08 A3016 RMK AO2 TSNO 55002 60001 T10441077 SLP227
Loading
Personal Weather Stations






























Interactive Weather Map New forecast layout! Learn more

10-Day Weather Forecast

Advertisements
Track Severe Weather on mobile